PWSweather.com
Personal Weather Stations
Station Observations
KJ4AJP
Beautiful Downtown Gardner, Martin, TN 38237

Beautiful Downtown GardnerMartin, TN 38237

Lat: 36.358, Lon: -88.8994

Elevation: 384.3

Station Type: TP1080WC

http://weather.mambm.com/

High Low Average
Temperature 61.7°F16.5°C 28.0°F-2.2°C 44.5°F6.9°C
Dew Point 43.9°F6.6°C 24.7°F-4.1°C 34.0°F1.1°C
Winds 15.2 mph 24.5 kmh 1.6 mph 2.6 kmh 6.0 mph S9.7 kmh S
Wind Gusts 27.3 mph43.9 kmh 5.4 mph8.7 kmh 16.0 mph25.7 kmh
Humidity 87% 50% 68%
Pressure 30.21 in1023.0 mb 29.86 in1011.2 mb -
Precipitation 0.00 in0.0 mm - -
Hour Temp Dew Point Humidity Winds Wind Gusts Pressure Precip Precip Rate Daily Precip Total
12:00 AM 27.0°F-2.8°C 23.4°F-4.8°C 86% 1.6 mph S2.6 kmh S 3.1 mph5.0 kmh 30.23 in1023.7 mb 0.00 in0.0 mm 0.00 in0.0 mm 0.00 in0.0 mm
12:15 AM 27.0°F-2.8°C 23.4°F-4.8°C 86% 1.6 mph S2.6 kmh S 5.4 mph8.7 kmh 30.22 in1023.4 mb 0.00 in0.0 mm 0.00 in0.0 mm 0.00 in0.0 mm
12:30 AM 27.3°F-2.6°C 24.0°F-4.4°C 87% 3.1 mph S5.0 kmh S 5.4 mph8.7 kmh 30.22 in1023.4 mb 0.00 in0.0 mm 0.00 in0.0 mm 0.00 in0.0 mm
12:45 AM 27.7°F-2.4°C 24.3°F-4.3°C 87% 1.6 mph SSE2.6 kmh SSE 6.0 mph9.7 kmh 30.21 in1023.0 mb 0.00 in0.0 mm 0.00 in0.0 mm 0.00 in0.0 mm
01:00 AM 28.0°F-2.2°C 24.7°F-4.1°C 87% 1.6 mph SSE2.6 kmh SSE 6.0 mph9.7 kmh 30.21 in1023.0 mb 0.00 in0.0 mm 0.00 in0.0 mm 0.00 in0.0 mm
01:15 AM 28.8°F-1.8°C 25.4°F-3.7°C 87% 3.1 mph SE5.0 kmh SE 7.6 mph12.2 kmh 30.19 in1022.4 mb 0.00 in0.0 mm 0.00 in0.0 mm 0.00 in0.0 mm
01:30 AM 29.7°F-1.3°C 26.0°F-3.3°C 86% 2.2 mph S3.5 kmh S 9.2 mph14.8 kmh 30.20 in1022.7 mb 0.00 in0.0 mm 0.00 in0.0 mm 0.00 in0.0 mm
01:45 AM 30.7°F-0.7°C 26.5°F-3.1°C 84% 3.8 mph SSE6.1 kmh SSE 7.6 mph12.2 kmh 30.21 in1023.0 mb 0.00 in0.0 mm 0.00 in0.0 mm 0.00 in0.0 mm
02:00 AM 31.1°F-0.5°C 26.6°F-3.0°C 83% 2.2 mph SSE3.5 kmh SSE 6.9 mph11.1 kmh 30.19 in1022.4 mb 0.00 in0.0 mm 0.00 in0.0 mm 0.00 in0.0 mm
02:15 AM 30.9°F-0.6°C 26.4°F-3.1°C 83% 1.6 mph SSE2.6 kmh SSE 8.3 mph13.4 kmh 30.19 in1022.4 mb 0.00 in0.0 mm 0.00 in0.0 mm 0.00 in0.0 mm
02:30 AM 31.1°F-0.5°C 26.6°F-3.0°C 83% 2.2 mph S3.5 kmh S 7.6 mph12.2 kmh 30.20 in1022.7 mb 0.00 in0.0 mm 0.00 in0.0 mm 0.00 in0.0 mm
02:45 AM 30.9°F-0.6°C 26.4°F-3.1°C 83% 2.2 mph S3.5 kmh S 6.0 mph9.7 kmh 30.20 in1022.7 mb 0.00 in0.0 mm 0.00 in0.0 mm 0.00 in0.0 mm
03:00 AM 30.6°F-0.8°C 26.0°F-3.3°C 83% 2.2 mph S3.5 kmh S 6.0 mph9.7 kmh 30.19 in1022.4 mb 0.00 in0.0 mm 0.00 in0.0 mm 0.00 in0.0 mm
03:15 AM 30.6°F-0.8°C 26.0°F-3.3°C 83% 3.8 mph S6.1 kmh S 6.0 mph9.7 kmh 30.19 in1022.4 mb 0.00 in0.0 mm 0.00 in0.0 mm 0.00 in0.0 mm
03:30 AM 30.7°F-0.7°C 26.2°F-3.2°C 83% 3.8 mph S6.1 kmh S 7.6 mph12.2 kmh 30.18 in1022.0 mb 0.00 in0.0 mm 0.00 in0.0 mm 0.00 in0.0 mm
03:45 AM 30.9°F-0.6°C 26.4°F-3.1°C 83% 2.2 mph SSE3.5 kmh SSE 6.0 mph9.7 kmh 30.17 in1021.7 mb 0.00 in0.0 mm 0.00 in0.0 mm 0.00 in0.0 mm
04:00 AM 30.6°F-0.8°C 26.0°F-3.3°C 83% 3.1 mph SSE5.0 kmh SSE 6.0 mph9.7 kmh 30.17 in1021.7 mb 0.00 in0.0 mm 0.00 in0.0 mm 0.00 in0.0 mm
04:15 AM 30.4°F-0.9°C 25.9°F-3.4°C 83% 2.2 mph S3.5 kmh S 5.4 mph8.7 kmh 30.17 in1021.7 mb 0.00 in0.0 mm 0.00 in0.0 mm 0.00 in0.0 mm
04:30 AM 30.2°F-1.0°C 26.0°F-3.3°C 84% 1.6 mph SSE2.6 kmh SSE 6.9 mph11.1 kmh 30.16 in1021.3 mb 0.00 in0.0 mm 0.00 in0.0 mm 0.00 in0.0 mm
04:45 AM 30.4°F-0.9°C 26.1°F-3.3°C 84% 2.2 mph SSE3.5 kmh SSE 6.9 mph11.1 kmh 30.14 in1020.7 mb 0.00 in0.0 mm 0.00 in0.0 mm 0.00 in0.0 mm
05:00 AM 30.9°F-0.6°C 26.7°F-2.9°C 84% 2.2 mph SSE3.5 kmh SSE 12.1 mph19.5 kmh 30.15 in1021.0 mb 0.00 in0.0 mm 0.00 in0.0 mm 0.00 in0.0 mm
05:15 AM 31.8°F-0.1°C 27.3°F-2.6°C 83% 4.5 mph S7.2 kmh S 9.2 mph14.8 kmh 30.14 in1020.7 mb 0.00 in0.0 mm 0.00 in0.0 mm 0.00 in0.0 mm
05:30 AM 32.5°F0.3°C 27.7°F-2.4°C 82% 6.0 mph S9.7 kmh S 10.7 mph17.2 kmh 30.14 in1020.7 mb 0.00 in0.0 mm 0.00 in0.0 mm 0.00 in0.0 mm
05:45 AM 32.9°F0.5°C 27.7°F-2.4°C 81% 2.2 mph S3.5 kmh S 9.2 mph14.8 kmh 30.14 in1020.7 mb 0.00 in0.0 mm 0.00 in0.0 mm 0.00 in0.0 mm
06:00 AM 33.3°F0.7°C 27.8°F-2.3°C 80% 3.1 mph S5.0 kmh S 11.4 mph18.3 kmh 30.14 in1020.7 mb 0.00 in0.0 mm 0.00 in0.0 mm 0.00 in0.0 mm
06:15 AM 33.3°F0.7°C 27.8°F-2.3°C 80% 2.2 mph SSE3.5 kmh SSE 8.3 mph13.4 kmh 30.13 in1020.3 mb 0.00 in0.0 mm 0.00 in0.0 mm 0.00 in0.0 mm
06:30 AM 33.6°F0.9°C 27.8°F-2.3°C 79% 3.1 mph S5.0 kmh S 9.2 mph14.8 kmh 30.12 in1020.0 mb 0.00 in0.0 mm 0.00 in0.0 mm 0.00 in0.0 mm
06:45 AM 33.8°F1.0°C 28.0°F-2.2°C 79% 3.8 mph S6.1 kmh S 9.8 mph15.8 kmh 30.13 in1020.3 mb 0.00 in0.0 mm 0.00 in0.0 mm 0.00 in0.0 mm
07:00 AM 34.2°F1.2°C 28.0°F-2.2°C 78% 6.0 mph SSE9.7 kmh SSE 10.7 mph17.2 kmh 30.12 in1020.0 mb 0.00 in0.0 mm 0.00 in0.0 mm 0.00 in0.0 mm
07:15 AM 34.9°F1.6°C 28.4°F-2.0°C 77% 7.6 mph S12.2 kmh S 12.1 mph19.5 kmh 30.12 in1020.0 mb 0.00 in0.0 mm 0.00 in0.0 mm 0.00 in0.0 mm
07:30 AM 35.8°F2.1°C 29.0°F-1.7°C 76% 9.2 mph SSE14.8 kmh SSE 17.4 mph28.0 kmh 30.11 in1019.6 mb 0.00 in0.0 mm 0.00 in0.0 mm 0.00 in0.0 mm
07:45 AM 36.3°F2.4°C 29.2°F-1.6°C 75% 6.0 mph S9.7 kmh S 16.8 mph27.0 kmh 30.10 in1019.3 mb 0.00 in0.0 mm 0.00 in0.0 mm 0.00 in0.0 mm
08:00 AM 36.3°F2.4°C 28.8°F-1.8°C 74% 9.8 mph S15.8 kmh S 16.8 mph27.0 kmh 30.10 in1019.3 mb 0.00 in0.0 mm 0.00 in0.0 mm 0.00 in0.0 mm
08:15 AM 36.7°F2.6°C 29.2°F-1.6°C 74% 6.0 mph S9.7 kmh S 15.9 mph25.6 kmh 30.11 in1019.6 mb 0.00 in0.0 mm 0.00 in0.0 mm 0.00 in0.0 mm
08:30 AM 37.0°F2.8°C 29.5°F-1.4°C 74% 8.3 mph SSE13.4 kmh SSE 16.8 mph27.0 kmh 30.10 in1019.3 mb 0.00 in0.0 mm 0.00 in0.0 mm 0.00 in0.0 mm
08:45 AM 38.1°F3.4°C 30.2°F-1.0°C 73% 9.8 mph S15.8 kmh S 19.0 mph30.6 kmh 30.08 in1018.6 mb 0.00 in0.0 mm 0.00 in0.0 mm 0.00 in0.0 mm
09:00 AM 39.4°F4.1°C 30.8°F-0.7°C 71% 12.1 mph S19.5 kmh S 21.3 mph34.3 kmh 30.09 in1019.0 mb 0.00 in0.0 mm 0.00 in0.0 mm 0.00 in0.0 mm
09:15 AM 40.3°F4.6°C 31.3°F-0.4°C 70% 6.9 mph SE11.1 kmh SE 19.7 mph31.7 kmh 30.08 in1018.6 mb 0.00 in0.0 mm 0.00 in0.0 mm 0.00 in0.0 mm
09:30 AM 41.4°F5.2°C 32.0°F0.0°C 69% 9.8 mph S15.8 kmh S 19.7 mph31.7 kmh 30.09 in1019.0 mb 0.00 in0.0 mm 0.00 in0.0 mm 0.00 in0.0 mm
09:45 AM 42.3°F5.7°C 32.1°F0.1°C 67% 9.2 mph S14.8 kmh S 22.1 mph35.6 kmh 30.09 in1019.0 mb 0.00 in0.0 mm 0.00 in0.0 mm 0.00 in0.0 mm
10:00 AM 43.5°F6.4°C 32.9°F0.5°C 66% 11.4 mph S18.3 kmh S 23.5 mph37.8 kmh 30.09 in1019.0 mb 0.00 in0.0 mm 0.00 in0.0 mm 0.00 in0.0 mm
10:15 AM 45.0°F7.2°C 34.3°F1.3°C 66% 8.3 mph S13.4 kmh S 22.1 mph35.6 kmh 30.08 in1018.6 mb 0.00 in0.0 mm 0.00 in0.0 mm 0.00 in0.0 mm
10:30 AM 46.0°F7.8°C 34.9°F1.6°C 65% 6.9 mph S11.1 kmh S 23.5 mph37.8 kmh 30.08 in1018.6 mb 0.00 in0.0 mm 0.00 in0.0 mm 0.00 in0.0 mm
10:45 AM 47.3°F8.5°C 35.4°F1.9°C 63% 13.6 mph S21.9 kmh S 25.9 mph41.7 kmh 30.08 in1018.6 mb 0.00 in0.0 mm 0.00 in0.0 mm 0.00 in0.0 mm
11:00 AM 47.8°F8.8°C 35.9°F2.2°C 63% 8.3 mph SSW13.4 kmh SSW 25.1 mph40.4 kmh 30.08 in1018.6 mb 0.00 in0.0 mm 0.00 in0.0 mm 0.00 in0.0 mm
11:15 AM 48.6°F9.2°C 36.1°F2.3°C 62% 10.7 mph S17.2 kmh S 20.6 mph33.2 kmh 30.08 in1018.6 mb 0.00 in0.0 mm 0.00 in0.0 mm 0.00 in0.0 mm
11:30 AM 48.9°F9.4°C 36.9°F2.7°C 63% 3.8 mph S6.1 kmh S 22.1 mph35.6 kmh 30.06 in1017.9 mb 0.00 in0.0 mm 0.00 in0.0 mm 0.00 in0.0 mm
11:45 AM 49.8°F9.9°C 36.9°F2.7°C 61% 5.4 mph S8.7 kmh S 23.5 mph37.8 kmh 30.05 in1017.6 mb 0.00 in0.0 mm 0.00 in0.0 mm 0.00 in0.0 mm
12:00 PM 50.5°F10.3°C 38.0°F3.3°C 62% 5.4 mph S8.7 kmh S 20.6 mph33.2 kmh 30.05 in1017.6 mb 0.00 in0.0 mm 0.00 in0.0 mm 0.00 in0.0 mm
12:15 PM 51.4°F10.8°C 38.0°F3.3°C 60% 10.7 mph S17.2 kmh S 21.3 mph34.3 kmh 30.04 in1017.3 mb 0.00 in0.0 mm 0.00 in0.0 mm 0.00 in0.0 mm
12:30 PM 53.1°F11.7°C 39.1°F3.9°C 59% 8.3 mph S13.4 kmh S 19.0 mph30.6 kmh 30.03 in1016.9 mb 0.00 in0.0 mm 0.00 in0.0 mm 0.00 in0.0 mm
12:45 PM 54.1°F12.3°C 40.1°F4.5°C 59% 8.3 mph S13.4 kmh S 17.4 mph28.0 kmh 30.02 in1016.6 mb 0.00 in0.0 mm 0.00 in0.0 mm 0.00 in0.0 mm
01:00 PM 55.6°F13.1°C 40.6°F4.8°C 57% 13.0 mph S20.9 kmh S 20.6 mph33.2 kmh 30.00 in1015.9 mb 0.00 in0.0 mm 0.00 in0.0 mm 0.00 in0.0 mm
01:15 PM 56.7°F13.7°C 41.6°F5.3°C 57% 4.5 mph S7.2 kmh S 19.0 mph30.6 kmh 29.99 in1015.6 mb 0.00 in0.0 mm 0.00 in0.0 mm 0.00 in0.0 mm
01:30 PM 57.4°F14.1°C 41.4°F5.2°C 55% 6.9 mph S11.1 kmh S 25.9 mph41.7 kmh 29.97 in1014.9 mb 0.00 in0.0 mm 0.00 in0.0 mm 0.00 in0.0 mm
01:45 PM 58.6°F14.8°C 41.6°F5.3°C 53% 9.2 mph S14.8 kmh S 25.1 mph40.4 kmh 29.94 in1013.9 mb 0.00 in0.0 mm 0.00 in0.0 mm 0.00 in0.0 mm
02:00 PM 58.5°F14.7°C 40.9°F4.9°C 52% 12.1 mph SSW19.5 kmh SSW 27.3 mph43.9 kmh 29.93 in1013.5 mb 0.00 in0.0 mm 0.00 in0.0 mm 0.00 in0.0 mm
02:15 PM 58.6°F14.8°C 41.6°F5.3°C 53% 11.4 mph SSW18.3 kmh SSW 24.4 mph39.3 kmh 29.91 in1012.9 mb 0.00 in0.0 mm 0.00 in0.0 mm 0.00 in0.0 mm
02:30 PM 58.8°F14.9°C 41.7°F5.4°C 53% 15.2 mph S24.5 kmh S 25.9 mph41.7 kmh 29.91 in1012.9 mb 0.00 in0.0 mm 0.00 in0.0 mm 0.00 in0.0 mm
02:45 PM 59.4°F15.2°C 42.2°F5.7°C 53% 10.7 mph SSW17.2 kmh SSW 22.8 mph36.7 kmh 29.90 in1012.5 mb 0.00 in0.0 mm 0.00 in0.0 mm 0.00 in0.0 mm
03:00 PM 60.3°F15.7°C 42.6°F5.9°C 52% 9.2 mph S14.8 kmh S 22.1 mph35.6 kmh 29.91 in1012.9 mb 0.00 in0.0 mm 0.00 in0.0 mm 0.00 in0.0 mm
03:15 PM 60.8°F16.0°C 42.1°F5.6°C 50% 13.6 mph SSW21.9 kmh SSW 22.8 mph36.7 kmh 29.90 in1012.5 mb 0.00 in0.0 mm 0.00 in0.0 mm 0.00 in0.0 mm
03:30 PM 61.2°F16.2°C 42.4°F5.8°C 50% 11.4 mph S18.3 kmh S 25.9 mph41.7 kmh 29.89 in1012.2 mb 0.00 in0.0 mm 0.00 in0.0 mm 0.00 in0.0 mm
03:45 PM 61.3°F16.3°C 43.1°F6.2°C 51% 6.0 mph S9.7 kmh S 18.3 mph29.5 kmh 29.89 in1012.2 mb 0.00 in0.0 mm 0.00 in0.0 mm 0.00 in0.0 mm
04:00 PM 61.3°F16.3°C 43.1°F6.2°C 51% 9.8 mph S15.8 kmh S 25.1 mph40.4 kmh 29.88 in1011.9 mb 0.00 in0.0 mm 0.00 in0.0 mm 0.00 in0.0 mm
04:15 PM 61.3°F16.3°C 43.6°F6.4°C 52% 6.0 mph SW9.7 kmh SW 19.0 mph30.6 kmh 29.88 in1011.9 mb 0.00 in0.0 mm 0.00 in0.0 mm 0.00 in0.0 mm
04:30 PM 61.3°F16.3°C 43.6°F6.4°C 52% 6.9 mph S11.1 kmh S 22.8 mph36.7 kmh 29.87 in1011.5 mb 0.00 in0.0 mm 0.00 in0.0 mm 0.00 in0.0 mm
04:45 PM 61.5°F16.4°C 43.7°F6.5°C 52% 8.3 mph SSW13.4 kmh SSW 19.7 mph31.7 kmh 29.87 in1011.5 mb 0.00 in0.0 mm 0.00 in0.0 mm 0.00 in0.0 mm
05:00 PM 61.7°F16.5°C 43.9°F6.6°C 52% 3.1 mph S5.0 kmh S 15.9 mph25.6 kmh 29.87 in1011.5 mb 0.00 in0.0 mm 0.00 in0.0 mm 0.00 in0.0 mm
05:15 PM 61.5°F16.4°C 43.7°F6.5°C 52% 6.9 mph SSW11.1 kmh SSW 19.0 mph30.6 kmh 29.87 in1011.5 mb 0.00 in0.0 mm 0.00 in0.0 mm 0.00 in0.0 mm
05:30 PM 60.6°F15.9°C 43.4°F6.3°C 53% 5.4 mph S8.7 kmh S 15.9 mph25.6 kmh 29.86 in1011.2 mb 0.00 in0.0 mm 0.00 in0.0 mm 0.00 in0.0 mm
05:45 PM 59.2°F15.1°C 42.6°F5.9°C 54% 4.5 mph S7.2 kmh S 14.5 mph23.3 kmh 29.86 in1011.2 mb 0.00 in0.0 mm 0.00 in0.0 mm 0.00 in0.0 mm
06:00 PM 57.6°F14.2°C 42.0°F5.6°C 56% 3.1 mph SSW5.0 kmh SSW 16.8 mph27.0 kmh 29.86 in1011.2 mb 0.00 in0.0 mm 0.00 in0.0 mm 0.00 in0.0 mm
06:15 PM 56.3°F13.5°C 41.7°F5.4°C 58% 2.2 mph SSW3.5 kmh SSW 8.3 mph13.4 kmh 29.87 in1011.5 mb 0.00 in0.0 mm 0.00 in0.0 mm 0.00 in0.0 mm
06:30 PM 54.9°F12.7°C 40.8°F4.9°C 59% 2.2 mph SSW3.5 kmh SSW 7.6 mph12.2 kmh 29.88 in1011.9 mb 0.00 in0.0 mm 0.00 in0.0 mm 0.00 in0.0 mm
06:45 PM 53.8°F12.1°C 40.7°F4.8°C 61% 3.8 mph S6.1 kmh S 9.2 mph14.8 kmh 29.88 in1011.9 mb 0.00 in0.0 mm 0.00 in0.0 mm 0.00 in0.0 mm
07:00 PM 52.9°F11.6°C 40.2°F4.6°C 62% 2.2 mph SSW3.5 kmh SSW 6.9 mph11.1 kmh 29.89 in1012.2 mb 0.00 in0.0 mm 0.00 in0.0 mm 0.00 in0.0 mm
07:15 PM 52.2°F11.2°C 40.0°F4.4°C 63% 2.2 mph SSW3.5 kmh SSW 5.4 mph8.7 kmh 29.90 in1012.5 mb 0.00 in0.0 mm 0.00 in0.0 mm 0.00 in0.0 mm
07:30 PM 51.1°F10.6°C 39.7°F4.3°C 65% 2.2 mph S3.5 kmh S 6.0 mph9.7 kmh 29.89 in1012.2 mb 0.00 in0.0 mm 0.00 in0.0 mm 0.00 in0.0 mm
07:45 PM 50.2°F10.1°C 39.7°F4.3°C 67% 3.1 mph S5.0 kmh S 7.6 mph12.2 kmh 29.89 in1012.2 mb 0.00 in0.0 mm 0.00 in0.0 mm 0.00 in0.0 mm
08:00 PM 49.3°F9.6°C 39.2°F4.0°C 68% 1.6 mph S2.6 kmh S 6.0 mph9.7 kmh 29.90 in1012.5 mb 0.00 in0.0 mm 0.00 in0.0 mm 0.00 in0.0 mm
08:15 PM 49.1°F9.5°C 39.4°F4.1°C 69% 1.6 mph S2.6 kmh S 5.4 mph8.7 kmh 29.91 in1012.9 mb 0.00 in0.0 mm 0.00 in0.0 mm 0.00 in0.0 mm
08:30 PM 48.4°F9.1°C 38.7°F3.7°C 69% 3.1 mph S5.0 kmh S 5.4 mph8.7 kmh 29.91 in1012.9 mb 0.00 in0.0 mm 0.00 in0.0 mm 0.00 in0.0 mm
08:45 PM 48.4°F9.1°C 39.4°F4.1°C 71% 2.2 mph S3.5 kmh S 8.3 mph13.4 kmh 29.91 in1012.9 mb 0.00 in0.0 mm 0.00 in0.0 mm 0.00 in0.0 mm
09:00 PM 48.4°F9.1°C 39.1°F3.9°C 70% 3.8 mph S6.1 kmh S 8.3 mph13.4 kmh 29.93 in1013.5 mb 0.00 in0.0 mm 0.00 in0.0 mm 0.00 in0.0 mm
09:15 PM 48.4°F9.1°C 39.1°F3.9°C 70% 3.1 mph S5.0 kmh S 8.3 mph13.4 kmh 29.93 in1013.5 mb 0.00 in0.0 mm 0.00 in0.0 mm 0.00 in0.0 mm
09:30 PM 47.8°F8.8°C 38.9°F3.8°C 71% 1.6 mph S2.6 kmh S 5.4 mph8.7 kmh 29.93 in1013.5 mb 0.00 in0.0 mm 0.00 in0.0 mm 0.00 in0.0 mm
09:45 PM 47.7°F8.7°C 38.7°F3.7°C 71% 4.5 mph S7.2 kmh S 8.3 mph13.4 kmh 29.93 in1013.5 mb 0.00 in0.0 mm 0.00 in0.0 mm 0.00 in0.0 mm
10:00 PM 47.8°F8.8°C 38.9°F3.8°C 71% 3.1 mph S5.0 kmh S 9.2 mph14.8 kmh 29.93 in1013.5 mb 0.00 in0.0 mm 0.00 in0.0 mm 0.00 in0.0 mm
10:15 PM 47.5°F8.6°C 38.6°F3.7°C 71% 1.6 mph S2.6 kmh S 6.0 mph9.7 kmh 29.93 in1013.5 mb 0.00 in0.0 mm 0.00 in0.0 mm 0.00 in0.0 mm
10:30 PM 46.2°F7.9°C 37.7°F3.2°C 72% 1.6 mph S2.6 kmh S 3.8 mph6.1 kmh 29.93 in1013.5 mb 0.00 in0.0 mm 0.00 in0.0 mm 0.00 in0.0 mm
10:45 PM 45.1°F7.3°C 37.0°F2.8°C 73% 2.2 mph S3.5 kmh S 6.0 mph9.7 kmh 29.93 in1013.5 mb 0.00 in0.0 mm 0.00 in0.0 mm 0.00 in0.0 mm
11:00 PM 44.6°F7.0°C 36.8°F2.7°C 74% 3.1 mph S5.0 kmh S 6.9 mph11.1 kmh 29.93 in1013.5 mb 0.00 in0.0 mm 0.00 in0.0 mm 0.00 in0.0 mm
11:15 PM 44.4°F6.9°C 37.0°F2.8°C 75% 3.1 mph S5.0 kmh S 6.9 mph11.1 kmh 29.93 in1013.5 mb 0.00 in0.0 mm 0.00 in0.0 mm 0.00 in0.0 mm
11:30 PM 44.6°F7.0°C 37.5°F3.1°C 76% 3.1 mph S5.0 kmh S 6.9 mph11.1 kmh 29.93 in1013.5 mb 0.00 in0.0 mm 0.00 in0.0 mm 0.00 in0.0 mm
11:45 PM 44.8°F7.1°C 37.3°F2.9°C 75% 3.8 mph S6.1 kmh S 9.2 mph14.8 kmh 29.93 in1013.5 mb 0.00 in0.0 mm 0.00 in0.0 mm 0.00 in0.0 mm